Grez-Doiceau, Belgium
Current Conditions -  °F | °C
As of 10:25 AM on Monday 20 Oct 2014 (Local Time) from EBBE Reporting Station
Broken Clouds Broken Clouds  
Wind Chill: 57°   Ceiling: 2500
Heat Index: 57°   Visibility: 6mi
Dew Point: 54°   Wind: 14mph
Humidity: 88%   Direction: 230°SW
Pressure: 30.09"   Gusts: NA
Location:  50.74°N, 4.7°E
Report Text: EBBE 200825Z 23012KT 9999 FEW010 SCT015 BKN025 14/12 Q1019 WHT WHT TEMPO GRN
Loading
Personal Weather Stations






























Interactive Weather Map
Tropical Storm Tracking
New forecast layout! Learn more

10-Day Weather Forecast

Advertisements
Track Severe Weather on mobile